createdAt,value
2023-12-12T00:00:53.442Z,100953.53
2023-12-12T00:03:20.002Z,100967.16
2023-12-12T00:05:46.650Z,100945.13
2023-12-12T00:08:13.234Z,100954.03
2023-12-12T00:10:39.814Z,100954.28
2023-12-12T00:13:06.319Z,100953.75
2023-12-12T00:15:32.908Z,100954.00
2023-12-12T00:17:59.389Z,100966.63
2023-12-12T00:20:25.963Z,100971.34
2023-12-12T00:22:52.383Z,100972.41
2023-12-12T00:25:18.836Z,100958.75
2023-12-12T00:27:45.279Z,100959.78
2023-12-12T00:30:13.134Z,100955.84
2023-12-12T00:32:39.565Z,100955.28
2023-12-12T00:35:07.341Z,100955.56
2023-12-12T00:37:34.058Z,100954.00
2023-12-12T00:40:00.665Z,100961.88
2023-12-12T00:42:27.146Z,100960.84
2023-12-12T00:44:53.601Z,100950.88
2023-12-12T00:47:20.048Z,100948.00
2023-12-12T00:49:46.484Z,100950.63
2023-12-12T00:52:12.964Z,100955.63
2023-12-12T00:54:39.395Z,100949.56
2023-12-12T00:57:05.857Z,100956.16
2023-12-12T00:59:32.266Z,100949.03
2023-12-12T01:01:58.765Z,100951.66
2023-12-12T01:04:25.377Z,100954.03
2023-12-12T01:06:51.849Z,100955.06
2023-12-12T01:09:18.351Z,100944.56
2023-12-12T01:11:44.829Z,100945.38
2023-12-12T01:14:11.270Z,100948.53
2023-12-12T01:16:37.760Z,100949.06
2023-12-12T01:19:04.424Z,100948.53
2023-12-12T01:21:31.056Z,100959.56
2023-12-12T01:23:57.562Z,100954.03
2023-12-12T01:26:24.592Z,100954.81
2023-12-12T01:28:51.615Z,100952.44
2023-12-12T01:31:18.764Z,100944.31
2023-12-12T01:33:45.303Z,100945.13
2023-12-12T01:36:12.048Z,100949.56
2023-12-12T01:38:38.446Z,100940.63
2023-12-12T01:41:05.029Z,100942.50
2023-12-12T01:43:32.687Z,100942.50
2023-12-12T01:46:01.160Z,100946.66
2023-12-12T01:48:28.196Z,100935.91
2023-12-12T01:50:54.724Z,100933.53
2023-12-12T01:53:24.429Z,100940.88
2023-12-12T01:55:51.348Z,100941.63
2023-12-12T01:58:18.883Z,100931.94
2023-12-12T02:00:45.682Z,100937.72
2023-12-12T02:03:12.753Z,100933.50
2023-12-12T02:05:41.280Z,100939.81
2023-12-12T02:08:07.711Z,100926.41
2023-12-12T02:10:34.884Z,100931.94
2023-12-12T02:13:01.608Z,100924.81
2023-12-12T02:15:28.300Z,100926.66
2023-12-12T02:17:54.872Z,100920.84
2023-12-12T02:20:21.377Z,100918.75
2023-12-12T02:22:47.793Z,100923.44
2023-12-12T02:25:19.924Z,100920.03
2023-12-12T02:27:47.335Z,100930.25
2023-12-12T02:30:15.500Z,100929.16
2023-12-12T02:32:42.037Z,100923.63
2023-12-12T02:35:08.804Z,100928.59
2023-12-12T02:37:35.661Z,100924.91
2023-12-12T02:40:02.341Z,100922.00
2023-12-12T02:42:28.771Z,100920.38
2023-12-12T02:44:56.693Z,100916.44
2023-12-12T02:47:24.044Z,100918.50
2023-12-12T02:49:51.085Z,100912.19
2023-12-12T02:52:17.859Z,100923.44
2023-12-12T02:54:44.336Z,100923.16
2023-12-12T02:57:10.812Z,100921.00
2023-12-12T02:59:37.292Z,100917.25
2023-12-12T03:02:03.868Z,100919.59
2023-12-12T03:04:30.648Z,100920.06
2023-12-12T03:06:57.248Z,100910.34
2023-12-12T03:09:23.762Z,100911.41
2023-12-12T03:11:53.116Z,100914.28
2023-12-12T03:14:20.798Z,100911.88
2023-12-12T03:16:47.214Z,100913.66
2023-12-12T03:19:13.810Z,100913.09
2023-12-12T03:21:40.362Z,100917.53
2023-12-12T03:24:06.847Z,100920.09
2023-12-12T03:26:34.858Z,100915.06
2023-12-12T03:29:01.258Z,100923.72
2023-12-12T03:31:27.708Z,100920.56
2023-12-12T03:33:54.273Z,100919.47
2023-12-12T03:36:20.754Z,100909.72
2023-12-12T03:38:47.431Z,100898.47
2023-12-12T03:41:13.952Z,100909.97
2023-12-12T03:43:40.358Z,100903.66
2023-12-12T03:46:06.868Z,100903.91
2023-12-12T03:48:33.457Z,100899.94
2023-12-12T03:50:59.964Z,100903.38
2023-12-12T03:53:26.427Z,100902.03
2023-12-12T03:55:53.097Z,100904.09
2023-12-12T03:58:19.617Z,100905.88
2023-12-12T04:00:46.146Z,100903.75
2023-12-12T04:03:12.635Z,100913.66
2023-12-12T04:05:39.839Z,100898.41
2023-12-12T04:08:06.414Z,100897.84
2023-12-12T04:10:32.966Z,100896.00
2023-12-12T04:12:59.570Z,100908.28
2023-12-12T04:15:26.089Z,100900.63
2023-12-12T04:17:52.616Z,100903.16
2023-12-12T04:20:19.183Z,100886.69
2023-12-12T04:22:45.696Z,100890.81
2023-12-12T04:25:12.946Z,100878.22
2023-12-12T04:27:39.429Z,100883.94
2023-12-12T04:30:06.569Z,100887.84
2023-12-12T04:32:33.552Z,100885.19
2023-12-12T04:35:06.182Z,100884.59
2023-12-12T04:37:32.965Z,100878.00
2023-12-12T04:39:59.693Z,100886.88
2023-12-12T04:42:26.098Z,100892.03
2023-12-12T04:44:52.587Z,100889.97
2023-12-12T04:47:19.102Z,100883.94
2023-12-12T04:49:45.886Z,100879.75
2023-12-12T04:52:12.477Z,100882.13
2023-12-12T04:54:38.956Z,100878.94
2023-12-12T04:57:05.390Z,100883.16
2023-12-12T04:59:31.857Z,100871.28
2023-12-12T05:01:58.555Z,100871.16
2023-12-12T05:04:25.241Z,100862.47
2023-12-12T05:06:51.757Z,100866.91
2023-12-12T05:09:18.615Z,100861.97
2023-12-12T05:11:45.076Z,100866.44
2023-12-12T05:14:12.081Z,100869.81
2023-12-12T05:16:38.625Z,100864.84
2023-12-12T05:19:05.484Z,100862.75
2023-12-12T05:21:32.236Z,100860.63
2023-12-12T05:23:59.133Z,100858.81
2023-12-12T05:26:25.651Z,100860.38
2023-12-12T05:28:52.436Z,100856.50
2023-12-12T05:31:19.046Z,100851.03
2023-12-12T05:33:45.735Z,100852.38
2023-12-12T05:36:12.672Z,100850.22
2023-12-12T05:38:40.382Z,100843.13
2023-12-12T05:41:07.476Z,100844.41
2023-12-12T05:43:34.047Z,100841.53
2023-12-12T05:46:00.784Z,100843.44
2023-12-12T05:48:27.401Z,100842.16
2023-12-12T05:50:53.872Z,100846.59
2023-12-12T05:53:20.413Z,100835.84
2023-12-12T05:55:46.959Z,100833.47
2023-12-12T05:58:13.549Z,100837.41
2023-12-12T06:00:41.272Z,100837.72
2023-12-12T06:03:07.821Z,100829.63
2023-12-12T06:05:34.361Z,100835.66
2023-12-12T06:08:00.985Z,100838.81
2023-12-12T06:10:28.857Z,100826.75
2023-12-12T06:12:55.428Z,100835.66
2023-12-12T06:15:21.945Z,100834.06
2023-12-12T06:17:49.110Z,100832.75
2023-12-12T06:20:16.076Z,100827.75
2023-12-12T06:22:42.658Z,100828.78
2023-12-12T06:25:10.068Z,100831.16
2023-12-12T06:27:36.682Z,100825.38
2023-12-12T06:30:03.165Z,100812.53
2023-12-12T06:32:29.838Z,100806.47
2023-12-12T06:34:56.640Z,100812.84
2023-12-12T06:37:23.274Z,100819.66
2023-12-12T06:39:49.775Z,100812.59
2023-12-12T06:42:16.256Z,100813.31
2023-12-12T06:44:42.854Z,100796.78
2023-12-12T06:47:10.255Z,100811.81
2023-12-12T06:49:36.849Z,100811.56
2023-12-12T06:52:04.604Z,100814.97
2023-12-12T06:54:31.275Z,100805.28
2023-12-12T06:56:57.796Z,100804.75
2023-12-12T06:59:24.399Z,100805.53
2023-12-12T07:01:52.411Z,100798.75
2023-12-12T07:04:19.031Z,100797.69
2023-12-12T07:06:45.521Z,100797.16
2023-12-12T07:09:13.626Z,100790.09
2023-12-12T07:11:40.327Z,100792.69
2023-12-12T07:14:06.908Z,100792.69
2023-12-12T07:16:33.536Z,100782.75
2023-12-12T07:19:00.219Z,100781.69
2023-12-12T07:21:26.813Z,100776.66
2023-12-12T07:23:54.390Z,100774.56
2023-12-12T07:26:24.075Z,100774.56
2023-12-12T07:28:51.007Z,100769.34
2023-12-12T07:31:17.813Z,100765.16
2023-12-12T07:33:44.443Z,100759.41
2023-12-12T07:36:11.028Z,100761.19
2023-12-12T07:38:37.511Z,100751.56
2023-12-12T07:41:04.093Z,100750.19
2023-12-12T07:43:30.615Z,100746.00
2023-12-12T07:45:57.195Z,100744.69
2023-12-12T07:48:26.584Z,100742.06
2023-12-12T07:50:53.216Z,100731.84
2023-12-12T07:53:19.687Z,100743.59
2023-12-12T07:55:46.465Z,100744.91
2023-12-12T07:58:13.045Z,100739.94
2023-12-12T08:00:40.220Z,100742.78
2023-12-12T08:03:06.729Z,100739.69
2023-12-12T08:05:33.361Z,100736.84
2023-12-12T08:08:05.083Z,100733.19
2023-12-12T08:10:32.926Z,100724.84
2023-12-12T08:12:59.487Z,100732.97
2023-12-12T08:15:25.966Z,100719.91
2023-12-12T08:17:52.479Z,100721.00
2023-12-12T08:20:19.069Z,100710.06
2023-12-12T08:22:46.434Z,100716.63
2023-12-12T08:25:12.953Z,100717.97
2023-12-12T08:27:39.537Z,100707.81
2023-12-12T08:30:06.779Z,100704.94
2023-12-12T08:32:33.352Z,100713.84
2023-12-12T08:35:00.077Z,100713.91
2023-12-12T08:37:26.611Z,100708.72
2023-12-12T08:39:53.164Z,100695.16
2023-12-12T08:42:19.722Z,100701.22
2023-12-12T08:44:46.215Z,100704.94
2023-12-12T08:47:12.775Z,100694.75
2023-12-12T08:49:40.088Z,100687.69
2023-12-12T08:52:07.372Z,100688.78
2023-12-12T08:54:37.253Z,100689.84
2023-12-12T08:57:05.064Z,100681.25
2023-12-12T08:59:31.542Z,100687.06
2023-12-12T09:01:58.153Z,100681.88
2023-12-12T09:04:24.938Z,100675.63
2023-12-12T09:06:51.477Z,100674.06
2023-12-12T09:09:17.945Z,100673.56
2023-12-12T09:11:46.723Z,100671.47
2023-12-12T09:14:13.236Z,100679.88
2023-12-12T09:16:39.818Z,100663.13
2023-12-12T09:19:07.696Z,100666.28
2023-12-12T09:21:34.322Z,100661.28
2023-12-12T09:24:00.793Z,100645.88
2023-12-12T09:26:27.279Z,100647.19
2023-12-12T09:28:53.756Z,100648.00
2023-12-12T09:31:27.767Z,100639.16
2023-12-12T09:33:55.290Z,100631.78
2023-12-12T09:36:22.154Z,100632.63
2023-12-12T09:38:48.680Z,100640.50
2023-12-12T09:41:18.607Z,100643.16
2023-12-12T09:43:45.857Z,100629.78
2023-12-12T09:46:12.442Z,100627.72
2023-12-12T09:48:39.649Z,100622.75
2023-12-12T09:51:07.483Z,100609.94
2023-12-12T09:53:36.480Z,100601.28
2023-12-12T09:56:06.356Z,100596.31
2023-12-12T09:58:32.923Z,100585.31
2023-12-12T10:01:03.569Z,100578.78
2023-12-12T10:03:30.686Z,100576.69
2023-12-12T10:05:57.808Z,100573.28
2023-12-12T10:08:24.629Z,100567.00
2023-12-12T10:10:54.153Z,100562.56
2023-12-12T10:13:21.002Z,100538.97
2023-12-12T10:15:48.740Z,100543.41
2023-12-12T10:18:15.470Z,100542.38
2023-12-12T10:20:42.042Z,100539.75
2023-12-12T10:23:08.480Z,100539.50
2023-12-12T10:25:36.302Z,100528.50
2023-12-12T10:28:03.173Z,100532.91
2023-12-12T10:30:29.973Z,100532.38
2023-12-12T10:32:57.017Z,100538.16
2023-12-12T10:35:24.973Z,100528.44
2023-12-12T10:37:52.024Z,100528.19
2023-12-12T10:40:25.525Z,100530.28
2023-12-12T10:42:52.588Z,100526.31
2023-12-12T10:45:21.292Z,100523.16
2023-12-12T10:47:50.326Z,100518.16
2023-12-12T10:50:18.212Z,100508.44
2023-12-12T10:52:46.951Z,100514.19
2023-12-12T10:55:15.022Z,100499.75
2023-12-12T10:57:46.332Z,100501.34
2023-12-12T11:00:17.610Z,100500.50
2023-12-12T11:02:46.312Z,100493.97
2023-12-12T11:05:14.021Z,100490.25
2023-12-12T11:07:41.457Z,100482.13
2023-12-12T11:10:10.757Z,100477.09
2023-12-12T11:12:39.323Z,100467.91
2023-12-12T11:15:06.720Z,100466.56
2023-12-12T11:17:33.640Z,100459.75
2023-12-12T11:20:10.784Z,100450.53
2023-12-12T11:22:45.800Z,100441.56
2023-12-12T11:25:21.415Z,100438.91
2023-12-12T11:27:50.409Z,100433.16
2023-12-12T11:30:21.444Z,100446.53
2023-12-12T11:32:48.693Z,100435.75
2023-12-12T11:35:32.585Z,100429.13
2023-12-12T11:38:06.968Z,100426.50
2023-12-12T11:40:38.489Z,100413.09
2023-12-12T11:43:24.291Z,100408.66
2023-12-12T11:45:51.204Z,100402.06
2023-12-12T11:48:18.262Z,100390.78
2023-12-12T11:50:46.238Z,100389.19
2023-12-12T11:53:12.706Z,100380.03
2023-12-12T11:55:44.283Z,100370.25
2023-12-12T11:58:11.438Z,100379.72
2023-12-12T12:00:41.915Z,100363.41
2023-12-12T12:03:10.354Z,100360.75
2023-12-12T12:05:37.291Z,100354.19
2023-12-12T12:08:04.113Z,100342.03
2023-12-12T12:10:30.725Z,100337.00
2023-12-12T12:12:59.086Z,100334.34
2023-12-12T12:15:26.271Z,100341.13
2023-12-12T12:17:53.007Z,100334.28
2023-12-12T12:20:20.010Z,100338.22
2023-12-12T12:22:46.653Z,100322.69
2023-12-12T12:25:14.051Z,100318.13
2023-12-12T12:27:51.974Z,100312.34
2023-12-12T12:30:19.486Z,100307.53
2023-12-12T12:33:02.718Z,100307.47
2023-12-12T12:35:29.599Z,100296.66
2023-12-12T12:37:58.283Z,100295.06
2023-12-12T12:40:38.964Z,100292.38
2023-12-12T12:43:15.690Z,100287.59
2023-12-12T12:45:42.180Z,100285.47
2023-12-12T12:48:08.745Z,100274.66
2023-12-12T12:50:35.658Z,100269.34
2023-12-12T12:53:04.425Z,100266.94
2023-12-12T12:55:31.000Z,100252.47
2023-12-12T12:57:57.649Z,100229.59
2023-12-12T13:00:24.182Z,100244.50
2023-12-12T13:02:50.682Z,100234.19
2023-12-12T13:05:18.706Z,100233.38
2023-12-12T13:07:45.246Z,100228.38
2023-12-12T13:10:12.231Z,100230.13
2023-12-12T13:12:39.939Z,100231.22
2023-12-12T13:15:08.564Z,100230.13
2023-12-12T13:17:35.035Z,100228.59
2023-12-12T13:20:05.375Z,100226.25
2023-12-12T13:22:32.671Z,100218.34
2023-12-12T13:24:59.352Z,100220.47
2023-12-12T13:27:25.826Z,100219.69
2023-12-12T13:29:52.253Z,100222.31
2023-12-12T13:32:18.719Z,100219.19
2023-12-12T13:34:46.654Z,100213.16
2023-12-12T13:37:13.665Z,100200.97
2023-12-12T13:39:40.183Z,100195.22
2023-12-12T13:42:06.759Z,100185.19
2023-12-12T13:44:33.632Z,100185.47
2023-12-12T13:47:00.105Z,100186.28
2023-12-12T13:49:26.660Z,100175.75
2023-12-12T13:51:53.189Z,100179.94
2023-12-12T13:54:19.730Z,100166.00
2023-12-12T13:56:46.327Z,100164.13
2023-12-12T13:59:13.103Z,100163.66
2023-12-12T14:01:39.810Z,100180.72
2023-12-12T14:04:07.433Z,100167.84
2023-12-12T14:06:33.984Z,100172.09
2023-12-12T14:09:00.387Z,100170.28
2023-12-12T14:11:27.574Z,100165.78
2023-12-12T14:13:54.109Z,100162.38
2023-12-12T14:16:28.046Z,100159.16
2023-12-12T14:18:59.395Z,100163.38
2023-12-12T14:21:25.903Z,100163.38
2023-12-12T14:23:52.384Z,100161.22
2023-12-12T14:26:21.707Z,100153.34
2023-12-12T14:28:50.904Z,100152.84
2023-12-12T14:31:17.881Z,100145.44
2023-12-12T14:33:47.696Z,100141.47
2023-12-12T14:36:15.196Z,100131.72
2023-12-12T14:38:44.354Z,100134.06
2023-12-12T14:41:11.373Z,100128.03
2023-12-12T14:43:37.915Z,100116.41
2023-12-12T14:46:05.418Z,100123.03
2023-12-12T14:48:31.934Z,100109.09
2023-12-12T14:50:58.364Z,100119.31
2023-12-12T14:53:24.813Z,100110.16
2023-12-12T14:55:51.479Z,100113.00
2023-12-12T14:58:18.203Z,100103.25
2023-12-12T15:00:44.767Z,100104.06
2023-12-12T15:03:11.420Z,100092.72
2023-12-12T15:05:38.005Z,100095.06
2023-12-12T15:08:04.768Z,100097.69
2023-12-12T15:10:31.269Z,100089.31
2023-12-12T15:12:57.779Z,100088.53
2023-12-12T15:15:24.289Z,100078.59
2023-12-12T15:17:50.901Z,100071.94
2023-12-12T15:20:17.472Z,100073.03
2023-12-12T15:22:44.064Z,100071.47
2023-12-12T15:25:14.558Z,100069.69
2023-12-12T15:27:41.178Z,100067.59
2023-12-12T15:30:08.091Z,100057.81
2023-12-12T15:32:34.947Z,100057.81
2023-12-12T15:37:28.150Z,100045.16
2023-12-12T15:39:54.673Z,100047.78
2023-12-12T15:42:21.175Z,100054.09
2023-12-12T15:44:47.627Z,100045.44
2023-12-12T15:47:14.175Z,100040.19
2023-12-12T15:49:42.712Z,100036.78
2023-12-12T15:52:10.247Z,100045.16
2023-12-12T15:54:36.841Z,100033.84
2023-12-12T15:57:03.818Z,100030.13
2023-12-12T15:59:31.882Z,100025.69
2023-12-12T16:02:00.771Z,100018.25
2023-12-12T16:04:28.441Z,100016.78
2023-12-12T16:06:55.012Z,100007.34
2023-12-12T16:09:22.106Z,100003.63
2023-12-12T16:11:48.585Z,100002.00
2023-12-12T16:14:15.203Z,99997.78
2023-12-12T16:16:44.341Z,100006.44
2023-12-12T16:19:11.035Z,100000.31
2023-12-12T16:21:40.150Z,100005.31
2023-12-12T16:24:07.074Z,100005.78
2023-12-12T16:26:33.873Z,100008.72
2023-12-12T16:29:00.812Z,100000.25
2023-12-12T16:31:27.411Z,99995.25
2023-12-12T16:33:54.405Z,99992.91
2023-12-12T16:36:23.850Z,99987.16
2023-12-12T16:38:53.074Z,99974.50
2023-12-12T16:41:19.594Z,99979.28
2023-12-12T16:43:46.195Z,99980.03
2023-12-12T16:46:13.595Z,99974.50
2023-12-12T16:48:41.007Z,99973.72
2023-12-12T16:51:08.329Z,99972.47
2023-12-12T16:53:36.923Z,99966.59
2023-12-12T16:56:09.086Z,99963.97
2023-12-12T16:58:36.872Z,99961.34
2023-12-12T17:01:03.659Z,99964.47
2023-12-12T17:03:30.239Z,99951.91
2023-12-12T17:05:56.803Z,99961.53
2023-12-12T17:08:23.478Z,99953.94
2023-12-12T17:10:50.162Z,99951.81
2023-12-12T17:13:17.813Z,99941.84
2023-12-12T17:15:44.332Z,99933.97
2023-12-12T17:18:11.335Z,99941.84
2023-12-12T17:20:37.847Z,99941.84
2023-12-12T17:23:04.381Z,99937.66
2023-12-12T17:25:30.880Z,99933.19
2023-12-12T17:27:57.373Z,99940.28
2023-12-12T17:30:23.865Z,99931.91
2023-12-12T17:32:51.260Z,99940.56
2023-12-12T17:35:17.902Z,99940.56
2023-12-12T17:37:44.588Z,99945.06
2023-12-12T17:40:11.945Z,99941.66
2023-12-12T17:42:40.052Z,99937.75
2023-12-12T17:45:07.287Z,99940.09
2023-12-12T17:47:36.420Z,99946.72
2023-12-12T17:50:05.587Z,99942.03
2023-12-12T17:52:32.196Z,99938.13
2023-12-12T17:54:58.751Z,99929.47
2023-12-12T17:57:25.983Z,99935.31
2023-12-12T17:59:52.521Z,99937.94
2023-12-12T18:02:19.266Z,99938.22
2023-12-12T18:04:45.787Z,99928.00
2023-12-12T18:07:12.278Z,99931.63
2023-12-12T18:09:40.623Z,99925.88
2023-12-12T18:12:07.322Z,99917.19
2023-12-12T18:14:34.075Z,99914.84
2023-12-12T18:17:04.550Z,99914.06
2023-12-12T18:19:32.410Z,99916.97
2023-12-12T18:21:59.631Z,99913.56
2023-12-12T18:24:26.308Z,99908.31
2023-12-12T18:26:54.596Z,99912.81
2023-12-12T18:29:21.747Z,99903.34
2023-12-12T18:31:49.837Z,99895.72
2023-12-12T18:34:16.889Z,99906.53
2023-12-12T18:36:43.606Z,99905.56
2023-12-12T18:39:11.172Z,99898.53
2023-12-12T18:41:38.614Z,99904.06
2023-12-12T18:44:05.180Z,99896.47
2023-12-12T18:46:31.771Z,99895.22
2023-12-12T18:48:58.274Z,99896.56
2023-12-12T18:51:25.630Z,99890.53
2023-12-12T18:53:52.142Z,99897.13
2023-12-12T18:56:18.703Z,99892.19
2023-12-12T18:58:45.541Z,99887.22
2023-12-12T19:01:14.323Z,99888.09
2023-12-12T19:03:41.424Z,99888.09
2023-12-12T19:06:09.017Z,99885.47
2023-12-12T19:08:35.520Z,99887.03
2023-12-12T19:11:01.998Z,99871.81
2023-12-12T19:13:33.577Z,99870.25
2023-12-12T19:16:00.269Z,99867.34
2023-12-12T19:18:27.019Z,99868.91
2023-12-12T19:20:54.738Z,99865.78
2023-12-12T19:23:21.432Z,99865.00
2023-12-12T19:25:49.016Z,99863.94
2023-12-12T19:28:16.632Z,99873.38
2023-12-12T19:30:44.264Z,99866.56
2023-12-12T19:33:10.896Z,99860.22
2023-12-12T19:35:38.778Z,99868.63
2023-12-12T19:38:07.203Z,99876.19
2023-12-12T19:40:37.149Z,99872.50
2023-12-12T19:43:04.529Z,99875.63
2023-12-12T19:45:32.279Z,99862.47
2023-12-12T19:47:59.120Z,99861.69
2023-12-12T19:50:25.787Z,99854.00
2023-12-12T19:52:52.588Z,99839.00
2023-12-12T19:55:19.552Z,99839.00
2023-12-12T19:57:46.133Z,99850.03
2023-12-12T20:00:13.220Z,99846.88
2023-12-12T20:02:39.686Z,99857.59
2023-12-12T20:05:08.447Z,99860.53
2023-12-12T20:07:36.998Z,99853.22
2023-12-12T20:10:06.041Z,99854.28
2023-12-12T20:12:33.271Z,99853.22
2023-12-12T20:14:59.821Z,99850.13
2023-12-12T20:17:26.642Z,99852.75
2023-12-12T20:19:53.260Z,99843.00
2023-12-12T20:22:22.086Z,99852.75
2023-12-12T20:24:49.239Z,99848.56
2023-12-12T20:27:15.745Z,99843.28
2023-12-12T20:29:42.236Z,99843.78
2023-12-12T20:32:08.771Z,99843.78
2023-12-12T20:34:35.737Z,99836.47
2023-12-12T20:37:02.330Z,99839.09
2023-12-12T20:39:29.000Z,99837.56
2023-12-12T20:41:56.080Z,99833.53
2023-12-12T20:44:22.535Z,99840.38
2023-12-12T20:46:49.168Z,99846.97
2023-12-12T20:49:15.926Z,99846.97
2023-12-12T20:51:43.377Z,99848.84
2023-12-12T20:54:10.219Z,99848.84
2023-12-12T20:56:42.308Z,99842.63
2023-12-12T20:59:09.143Z,99847.06
2023-12-12T21:01:35.584Z,99847.88
2023-12-12T21:04:02.015Z,99839.78
2023-12-12T21:06:28.582Z,99842.19
2023-12-12T21:08:55.082Z,99837.22
2023-12-12T21:11:21.662Z,99834.59
2023-12-12T21:13:48.187Z,99829.34
2023-12-12T21:16:16.311Z,99829.94
2023-12-12T21:18:42.894Z,99825.75
2023-12-12T21:21:09.442Z,99827.03
2023-12-12T21:23:36.014Z,99820.78
2023-12-12T21:26:02.564Z,99816.09
2023-12-12T21:28:29.003Z,99821.34
2023-12-12T21:30:55.505Z,99823.97
2023-12-12T21:33:22.136Z,99826.13
2023-12-12T21:35:52.033Z,99822.25
2023-12-12T21:38:18.732Z,99818.53
2023-12-12T21:40:45.948Z,99824.88
2023-12-12T21:43:12.458Z,99824.88
2023-12-12T21:45:38.969Z,99818.13
2023-12-12T21:48:09.422Z,99817.44
2023-12-12T21:50:36.012Z,99819.00
2023-12-12T21:53:02.881Z,99825.53
2023-12-12T21:55:29.447Z,99833.22
2023-12-12T21:57:56.027Z,99830.69
2023-12-12T22:00:22.462Z,99839.63
2023-12-12T22:02:49.063Z,99835.72
2023-12-12T22:05:15.686Z,99838.84
2023-12-12T22:07:42.293Z,99826.28
2023-12-12T22:10:09.315Z,99831.53
2023-12-12T22:12:37.326Z,99835.72
2023-12-12T22:15:08.551Z,99836.28
2023-12-12T22:17:35.266Z,99842.03
2023-12-12T22:20:06.432Z,99840.19
2023-12-12T22:22:34.081Z,99837.28
2023-12-12T22:25:00.703Z,99838.56
2023-12-12T22:27:27.218Z,99835.66
2023-12-12T22:29:53.718Z,99834.56
2023-12-12T22:32:20.356Z,99828.25
2023-12-12T22:34:46.996Z,99829.00
2023-12-12T22:37:13.533Z,99828.72
2023-12-12T22:39:40.038Z,99823.00
2023-12-12T22:42:06.785Z,99818.78
2023-12-12T22:44:33.330Z,99820.38
2023-12-12T22:46:59.866Z,99821.13
2023-12-12T22:49:26.429Z,99814.09
2023-12-12T22:51:52.945Z,99814.09
2023-12-12T22:54:19.431Z,99821.50
2023-12-12T22:56:46.645Z,99824.63
2023-12-12T22:59:13.134Z,99825.41
2023-12-12T23:01:44.362Z,99821.50
2023-12-12T23:04:10.961Z,99825.78
2023-12-12T23:06:37.551Z,99828.91
2023-12-12T23:09:06.731Z,99826.66
2023-12-12T23:11:34.502Z,99826.34
2023-12-12T23:14:01.019Z,99816.50
2023-12-12T23:16:27.495Z,99816.41
2023-12-12T23:18:53.942Z,99816.41
2023-12-12T23:21:20.440Z,99814.88
2023-12-12T23:23:46.916Z,99810.69
2023-12-12T23:26:13.408Z,99803.44
2023-12-12T23:28:41.310Z,99810.75
2023-12-12T23:31:08.855Z,99811.81
2023-12-12T23:33:37.376Z,99805.78
2023-12-12T23:36:04.230Z,99800.06
2023-12-12T23:38:30.746Z,99805.78
2023-12-12T23:40:57.303Z,99803.25
2023-12-12T23:43:23.835Z,99791.06
2023-12-12T23:45:51.226Z,99792.06
2023-12-12T23:48:18.634Z,99795.84
2023-12-12T23:50:45.167Z,99790.88
2023-12-12T23:53:11.686Z,99788.84
2023-12-12T23:55:38.224Z,99782.03
2023-12-12T23:58:05.867Z,99779.41
